sensor_id;sensor_type;location;lat;lon;timestamp;P1;durP1;ratioP1;P2;durP2;ratioP2
22429;SDS011;11382;48.086;11.632;2023-08-06T00:00:25;8.60;;;5.35;;
22429;SDS011;11382;48.086;11.632;2023-08-06T00:02:53;6.53;;;5.32;;
22429;SDS011;11382;48.086;11.632;2023-08-06T00:05:22;10.52;;;6.15;;
22429;SDS011;11382;48.086;11.632;2023-08-06T00:07:50;8.52;;;5.10;;
22429;SDS011;11382;48.086;11.632;2023-08-06T00:10:18;8.88;;;5.55;;
22429;SDS011;11382;48.086;11.632;2023-08-06T00:12:48;7.07;;;5.53;;
22429;SDS011;11382;48.086;11.632;2023-08-06T00:15:16;6.32;;;5.30;;
22429;SDS011;11382;48.086;11.632;2023-08-06T00:17:44;5.30;;;4.75;;
22429;SDS011;11382;48.086;11.632;2023-08-06T00:20:12;7.80;;;5.10;;
22429;SDS011;11382;48.086;11.632;2023-08-06T00:22:40;12.15;;;5.13;;
22429;SDS011;11382;48.086;11.632;2023-08-06T00:25:08;6.18;;;4.90;;
22429;SDS011;11382;48.086;11.632;2023-08-06T00:27:36;5.72;;;4.93;;
22429;SDS011;11382;48.086;11.632;2023-08-06T00:30:06;5.43;;;4.72;;
22429;SDS011;11382;48.086;11.632;2023-08-06T00:32:34;5.68;;;4.80;;
22429;SDS011;11382;48.086;11.632;2023-08-06T00:35:03;5.70;;;4.65;;
22429;SDS011;11382;48.086;11.632;2023-08-06T00:37:31;6.00;;;4.90;;
22429;SDS011;11382;48.086;11.632;2023-08-06T00:39:59;6.20;;;5.03;;
22429;SDS011;11382;48.086;11.632;2023-08-06T00:42:27;5.25;;;4.72;;
22429;SDS011;11382;48.086;11.632;2023-08-06T00:44:55;8.75;;;4.95;;
22429;SDS011;11382;48.086;11.632;2023-08-06T00:47:25;5.50;;;4.90;;
22429;SDS011;11382;48.086;11.632;2023-08-06T00:49:53;6.32;;;4.50;;
22429;SDS011;11382;48.086;11.632;2023-08-06T00:52:21;6.90;;;5.25;;
22429;SDS011;11382;48.086;11.632;2023-08-06T00:54:50;5.25;;;4.40;;
22429;SDS011;11382;48.086;11.632;2023-08-06T00:57:18;5.80;;;4.90;;
22429;SDS011;11382;48.086;11.632;2023-08-06T00:59:47;5.28;;;4.53;;
22429;SDS011;11382;48.086;11.632;2023-08-06T01:02:15;6.57;;;4.90;;
22429;SDS011;11382;48.086;11.632;2023-08-06T01:04:45;4.65;;;4.07;;
22429;SDS011;11382;48.086;11.632;2023-08-06T01:07:16;10.10;;;5.32;;
22429;SDS011;11382;48.086;11.632;2023-08-06T01:09:55;7.75;;;4.88;;
22429;SDS011;11382;48.086;11.632;2023-08-06T01:12:39;5.38;;;4.68;;
22429;SDS011;11382;48.086;11.632;2023-08-06T01:15:14;8.50;;;5.57;;
22429;SDS011;11382;48.086;11.632;2023-08-06T01:17:46;7.13;;;5.50;;
22429;SDS011;11382;48.086;11.632;2023-08-06T01:20:17;7.38;;;5.03;;
22429;SDS011;11382;48.086;11.632;2023-08-06T01:22:46;7.20;;;5.15;;
22429;SDS011;11382;48.086;11.632;2023-08-06T01:25:14;7.15;;;5.50;;
22429;SDS011;11382;48.086;11.632;2023-08-06T01:27:44;8.35;;;5.35;;
22429;SDS011;11382;48.086;11.632;2023-08-06T01:30:16;8.85;;;5.03;;
22429;SDS011;11382;48.086;11.632;2023-08-06T01:32:48;9.32;;;6.45;;
22429;SDS011;11382;48.086;11.632;2023-08-06T01:35:20;8.20;;;5.97;;
22429;SDS011;11382;48.086;11.632;2023-08-06T01:37:51;7.72;;;5.68;;
22429;SDS011;11382;48.086;11.632;2023-08-06T01:40:20;8.43;;;5.57;;
22429;SDS011;11382;48.086;11.632;2023-08-06T01:42:48;7.60;;;5.65;;
22429;SDS011;11382;48.086;11.632;2023-08-06T01:45:16;9.38;;;5.63;;
22429;SDS011;11382;48.086;11.632;2023-08-06T01:47:44;8.90;;;6.30;;
22429;SDS011;11382;48.086;11.632;2023-08-06T01:50:12;8.90;;;5.95;;
22429;SDS011;11382;48.086;11.632;2023-08-06T01:52:40;8.40;;;6.03;;
22429;SDS011;11382;48.086;11.632;2023-08-06T01:55:09;10.05;;;6.07;;
22429;SDS011;11382;48.086;11.632;2023-08-06T01:57:37;8.88;;;5.70;;
22429;SDS011;11382;48.086;11.632;2023-08-06T02:00:06;8.00;;;5.55;;
22429;SDS011;11382;48.086;11.632;2023-08-06T02:02:40;9.93;;;5.70;;
22429;SDS011;11382;48.086;11.632;2023-08-06T02:05:08;6.93;;;5.90;;
22429;SDS011;11382;48.086;11.632;2023-08-06T02:07:38;9.35;;;5.90;;
22429;SDS011;11382;48.086;11.632;2023-08-06T02:10:07;8.13;;;5.25;;
22429;SDS011;11382;48.086;11.632;2023-08-06T02:12:37;8.15;;;5.53;;
22429;SDS011;11382;48.086;11.632;2023-08-06T02:15:05;7.10;;;5.80;;
22429;SDS011;11382;48.086;11.632;2023-08-06T02:17:34;7.88;;;5.45;;
22429;SDS011;11382;48.086;11.632;2023-08-06T02:20:02;5.85;;;4.70;;
22429;SDS011;11382;48.086;11.632;2023-08-06T02:22:30;5.60;;;4.38;;
22429;SDS011;11382;48.086;11.632;2023-08-06T02:24:59;8.50;;;4.15;;
22429;SDS011;11382;48.086;11.632;2023-08-06T02:27:27;6.35;;;4.03;;
22429;SDS011;11382;48.086;11.632;2023-08-06T02:29:57;7.30;;;4.53;;
22429;SDS011;11382;48.086;11.632;2023-08-06T02:32:25;9.57;;;4.00;;
22429;SDS011;11382;48.086;11.632;2023-08-06T02:34:53;4.75;;;4.07;;
22429;SDS011;11382;48.086;11.632;2023-08-06T02:37:21;5.20;;;3.60;;
22429;SDS011;11382;48.086;11.632;2023-08-06T02:39:49;4.75;;;3.75;;
22429;SDS011;11382;48.086;11.632;2023-08-06T02:42:17;4.63;;;3.85;;
22429;SDS011;11382;48.086;11.632;2023-08-06T02:44:45;4.90;;;4.03;;
22429;SDS011;11382;48.086;11.632;2023-08-06T02:47:14;4.93;;;4.15;;
22429;SDS011;11382;48.086;11.632;2023-08-06T02:49:43;6.00;;;3.92;;
22429;SDS011;11382;48.086;11.632;2023-08-06T02:52:11;6.85;;;3.95;;
22429;SDS011;11382;48.086;11.632;2023-08-06T02:54:40;5.93;;;3.90;;
22429;SDS011;11382;48.086;11.632;2023-08-06T02:57:08;4.40;;;3.78;;
22429;SDS011;11382;48.086;11.632;2023-08-06T02:59:36;4.35;;;3.33;;
22429;SDS011;11382;48.086;11.632;2023-08-06T03:02:09;5.93;;;3.80;;
22429;SDS011;11382;48.086;11.632;2023-08-06T03:04:58;3.53;;;3.15;;
22429;SDS011;11382;48.086;11.632;2023-08-06T03:07:32;4.45;;;3.10;;
22429;SDS011;11382;48.086;11.632;2023-08-06T03:10:09;6.25;;;4.05;;
22429;SDS011;11382;48.086;11.632;2023-08-06T03:12:37;5.70;;;3.40;;
22429;SDS011;11382;48.086;11.632;2023-08-06T03:15:06;4.20;;;3.45;;
22429;SDS011;11382;48.086;11.632;2023-08-06T03:17:35;3.97;;;3.30;;
22429;SDS011;11382;48.086;11.632;2023-08-06T03:20:06;4.82;;;3.72;;
22429;SDS011;11382;48.086;11.632;2023-08-06T03:22:35;9.52;;;3.70;;
22429;SDS011;11382;48.086;11.632;2023-08-06T03:25:05;4.10;;;3.33;;
22429;SDS011;11382;48.086;11.632;2023-08-06T03:27:35;4.80;;;3.60;;
22429;SDS011;11382;48.086;11.632;2023-08-06T03:30:03;6.22;;;4.10;;
22429;SDS011;11382;48.086;11.632;2023-08-06T03:32:33;4.50;;;3.00;;
22429;SDS011;11382;48.086;11.632;2023-08-06T03:35:02;4.90;;;3.40;;
22429;SDS011;11382;48.086;11.632;2023-08-06T03:37:32;4.45;;;2.83;;
22429;SDS011;11382;48.086;11.632;2023-08-06T03:40:00;4.10;;;3.30;;
22429;SDS011;11382;48.086;11.632;2023-08-06T03:42:29;7.22;;;3.28;;
22429;SDS011;11382;48.086;11.632;2023-08-06T03:44:58;4.85;;;3.40;;
22429;SDS011;11382;48.086;11.632;2023-08-06T03:47:27;3.42;;;2.72;;
22429;SDS011;11382;48.086;11.632;2023-08-06T03:49:55;3.88;;;3.10;;
22429;SDS011;11382;48.086;11.632;2023-08-06T03:52:23;7.38;;;3.05;;
22429;SDS011;11382;48.086;11.632;2023-08-06T03:54:52;3.60;;;2.90;;
22429;SDS011;11382;48.086;11.632;2023-08-06T03:57:21;4.82;;;3.28;;
22429;SDS011;11382;48.086;11.632;2023-08-06T03:59:49;6.50;;;3.42;;
22429;SDS011;11382;48.086;11.632;2023-08-06T04:02:23;3.45;;;3.15;;
22429;SDS011;11382;48.086;11.632;2023-08-06T04:04:52;4.88;;;3.40;;
22429;SDS011;11382;48.086;11.632;2023-08-06T04:07:20;3.35;;;2.75;;
22429;SDS011;11382;48.086;11.632;2023-08-06T04:09:56;2.92;;;2.70;;
22429;SDS011;11382;48.086;11.632;2023-08-06T04:12:25;3.08;;;2.70;;
22429;SDS011;11382;48.086;11.632;2023-08-06T04:14:53;7.05;;;2.67;;
22429;SDS011;11382;48.086;11.632;2023-08-06T04:17:21;2.85;;;2.42;;
22429;SDS011;11382;48.086;11.632;2023-08-06T04:19:50;4.10;;;2.90;;
22429;SDS011;11382;48.086;11.632;2023-08-06T04:22:19;3.42;;;2.90;;
22429;SDS011;11382;48.086;11.632;2023-08-06T04:24:48;4.00;;;2.83;;
22429;SDS011;11382;48.086;11.632;2023-08-06T04:27:18;3.17;;;2.45;;
22429;SDS011;11382;48.086;11.632;2023-08-06T04:29:48;2.28;;;2.03;;
22429;SDS011;11382;48.086;11.632;2023-08-06T04:32:16;3.08;;;2.60;;
22429;SDS011;11382;48.086;11.632;2023-08-06T04:34:49;3.55;;;2.58;;
22429;SDS011;11382;48.086;11.632;2023-08-06T04:37:17;3.15;;;2.28;;
22429;SDS011;11382;48.086;11.632;2023-08-06T04:39:45;2.60;;;2.33;;
22429;SDS011;11382;48.086;11.632;2023-08-06T04:42:14;2.80;;;2.30;;
22429;SDS011;11382;48.086;11.632;2023-08-06T04:44:43;3.50;;;2.35;;
22429;SDS011;11382;48.086;11.632;2023-08-06T04:47:11;2.92;;;2.33;;
22429;SDS011;11382;48.086;11.632;2023-08-06T04:49:41;4.05;;;2.47;;
22429;SDS011;11382;48.086;11.632;2023-08-06T04:52:09;2.95;;;2.15;;
22429;SDS011;11382;48.086;11.632;2023-08-06T04:54:37;3.97;;;2.03;;
22429;SDS011;11382;48.086;11.632;2023-08-06T04:57:05;3.95;;;2.13;;
22429;SDS011;11382;48.086;11.632;2023-08-06T04:59:33;3.08;;;2.00;;
22429;SDS011;11382;48.086;11.632;2023-08-06T05:02:03;2.38;;;2.00;;
22429;SDS011;11382;48.086;11.632;2023-08-06T05:04:31;3.65;;;2.35;;
22429;SDS011;11382;48.086;11.632;2023-08-06T05:06:59;4.53;;;1.92;;
22429;SDS011;11382;48.086;11.632;2023-08-06T05:09:27;4.40;;;2.00;;
22429;SDS011;11382;48.086;11.632;2023-08-06T05:11:55;3.05;;;1.92;;
22429;SDS011;11382;48.086;11.632;2023-08-06T05:14:23;3.28;;;2.00;;
22429;SDS011;11382;48.086;11.632;2023-08-06T05:16:51;5.78;;;2.10;;
22429;SDS011;11382;48.086;11.632;2023-08-06T05:19:21;2.75;;;2.13;;
22429;SDS011;11382;48.086;11.632;2023-08-06T05:21:49;5.40;;;2.28;;
22429;SDS011;11382;48.086;11.632;2023-08-06T05:24:17;3.08;;;2.33;;
22429;SDS011;11382;48.086;11.632;2023-08-06T05:26:48;3.35;;;2.25;;
22429;SDS011;11382;48.086;11.632;2023-08-06T05:29:16;3.50;;;2.10;;
22429;SDS011;11382;48.086;11.632;2023-08-06T05:31:44;2.88;;;2.15;;
22429;SDS011;11382;48.086;11.632;2023-08-06T05:34:12;4.43;;;2.72;;
22429;SDS011;11382;48.086;11.632;2023-08-06T05:36:41;2.55;;;2.25;;
22429;SDS011;11382;48.086;11.632;2023-08-06T05:39:09;2.40;;;2.10;;
22429;SDS011;11382;48.086;11.632;2023-08-06T05:41:37;3.95;;;2.30;;
22429;SDS011;11382;48.086;11.632;2023-08-06T05:44:05;3.00;;;1.70;;
22429;SDS011;11382;48.086;11.632;2023-08-06T05:46:33;2.75;;;2.17;;
22429;SDS011;11382;48.086;11.632;2023-08-06T05:49:01;2.75;;;2.20;;
22429;SDS011;11382;48.086;11.632;2023-08-06T05:51:29;3.33;;;2.17;;
22429;SDS011;11382;48.086;11.632;2023-08-06T05:53:59;2.75;;;2.20;;
22429;SDS011;11382;48.086;11.632;2023-08-06T05:56:27;2.55;;;2.25;;
22429;SDS011;11382;48.086;11.632;2023-08-06T05:58:55;3.20;;;2.10;;
22429;SDS011;11382;48.086;11.632;2023-08-06T06:01:23;1.90;;;1.63;;
22429;SDS011;11382;48.086;11.632;2023-08-06T06:03:51;4.15;;;1.92;;
22429;SDS011;11382;48.086;11.632;2023-08-06T06:06:19;2.55;;;2.10;;
22429;SDS011;11382;48.086;11.632;2023-08-06T06:08:47;2.00;;;1.80;;
22429;SDS011;11382;48.086;11.632;2023-08-06T06:11:16;2.92;;;2.00;;
22429;SDS011;11382;48.086;11.632;2023-08-06T06:13:48;2.97;;;1.90;;
22429;SDS011;11382;48.086;11.632;2023-08-06T06:16:18;2.22;;;1.80;;
22429;SDS011;11382;48.086;11.632;2023-08-06T06:18:46;2.65;;;1.85;;
22429;SDS011;11382;48.086;11.632;2023-08-06T06:21:14;1.98;;;1.77;;
22429;SDS011;11382;48.086;11.632;2023-08-06T06:23:42;6.05;;;2.13;;
22429;SDS011;11382;48.086;11.632;2023-08-06T06:26:10;3.35;;;1.67;;
22429;SDS011;11382;48.086;11.632;2023-08-06T06:28:39;2.58;;;1.67;;
22429;SDS011;11382;48.086;11.632;2023-08-06T06:31:07;5.25;;;1.73;;
22429;SDS011;11382;48.086;11.632;2023-08-06T06:33:35;3.30;;;1.30;;
22429;SDS011;11382;48.086;11.632;2023-08-06T06:36:03;1.95;;;1.75;;
22429;SDS011;11382;48.086;11.632;2023-08-06T06:38:33;3.22;;;1.60;;
22429;SDS011;11382;48.086;11.632;2023-08-06T06:41:01;3.35;;;1.60;;
22429;SDS011;11382;48.086;11.632;2023-08-06T06:43:30;1.70;;;1.33;;
22429;SDS011;11382;48.086;11.632;2023-08-06T06:45:59;1.50;;;1.10;;
22429;SDS011;11382;48.086;11.632;2023-08-06T06:48:28;1.95;;;1.20;;
22429;SDS011;11382;48.086;11.632;2023-08-06T06:50:57;2.33;;;1.60;;
22429;SDS011;11382;48.086;11.632;2023-08-06T06:53:25;3.20;;;1.52;;
22429;SDS011;11382;48.086;11.632;2023-08-06T06:55:54;1.67;;;1.30;;
22429;SDS011;11382;48.086;11.632;2023-08-06T06:58:22;1.92;;;1.38;;
22429;SDS011;11382;48.086;11.632;2023-08-06T07:00:50;1.73;;;1.40;;
22429;SDS011;11382;48.086;11.632;2023-08-06T07:03:20;1.60;;;1.13;;
22429;SDS011;11382;48.086;11.632;2023-08-06T07:05:49;1.83;;;1.30;;
22429;SDS011;11382;48.086;11.632;2023-08-06T07:08:17;2.65;;;1.35;;
22429;SDS011;11382;48.086;11.632;2023-08-06T07:10:45;1.77;;;1.30;;
22429;SDS011;11382;48.086;11.632;2023-08-06T07:13:13;3.88;;;1.05;;
22429;SDS011;11382;48.086;11.632;2023-08-06T07:15:42;4.72;;;1.40;;
22429;SDS011;11382;48.086;11.632;2023-08-06T07:18:10;3.97;;;1.25;;
22429;SDS011;11382;48.086;11.632;2023-08-06T07:20:40;3.28;;;0.80;;
22429;SDS011;11382;48.086;11.632;2023-08-06T07:23:07;2.33;;;1.00;;
22429;SDS011;11382;48.086;11.632;2023-08-06T07:25:35;2.00;;;1.25;;
22429;SDS011;11382;48.086;11.632;2023-08-06T07:28:03;2.33;;;1.15;;
22429;SDS011;11382;48.086;11.632;2023-08-06T07:30:31;6.50;;;1.25;;
22429;SDS011;11382;48.086;11.632;2023-08-06T07:32:59;1.48;;;1.00;;
22429;SDS011;11382;48.086;11.632;2023-08-06T07:35:28;1.90;;;0.98;;
22429;SDS011;11382;48.086;11.632;2023-08-06T07:37:57;1.73;;;0.93;;
22429;SDS011;11382;48.086;11.632;2023-08-06T07:40:25;2.55;;;1.17;;
22429;SDS011;11382;48.086;11.632;2023-08-06T07:42:53;2.92;;;1.05;;
22429;SDS011;11382;48.086;11.632;2023-08-06T07:45:22;1.83;;;0.95;;
22429;SDS011;11382;48.086;11.632;2023-08-06T07:47:50;3.95;;;1.20;;
22429;SDS011;11382;48.086;11.632;2023-08-06T07:50:18;1.45;;;1.00;;
22429;SDS011;11382;48.086;11.632;2023-08-06T07:52:46;2.08;;;1.00;;
22429;SDS011;11382;48.086;11.632;2023-08-06T07:55:15;1.67;;;1.00;;
22429;SDS011;11382;48.086;11.632;2023-08-06T07:57:43;2.10;;;0.90;;
22429;SDS011;11382;48.086;11.632;2023-08-06T08:00:11;2.63;;;1.13;;
22429;SDS011;11382;48.086;11.632;2023-08-06T08:02:40;2.05;;;1.08;;
22429;SDS011;11382;48.086;11.632;2023-08-06T08:05:08;2.25;;;1.23;;
22429;SDS011;11382;48.086;11.632;2023-08-06T08:07:36;1.70;;;0.88;;
22429;SDS011;11382;48.086;11.632;2023-08-06T08:10:04;2.13;;;0.77;;
22429;SDS011;11382;48.086;11.632;2023-08-06T08:12:34;2.63;;;0.93;;
22429;SDS011;11382;48.086;11.632;2023-08-06T08:15:03;1.05;;;0.90;;
22429;SDS011;11382;48.086;11.632;2023-08-06T08:17:32;1.80;;;0.82;;
22429;SDS011;11382;48.086;11.632;2023-08-06T08:20:01;1.35;;;0.77;;
22429;SDS011;11382;48.086;11.632;2023-08-06T08:22:29;1.38;;;0.75;;
22429;SDS011;11382;48.086;11.632;2023-08-06T08:24:57;1.52;;;0.93;;
22429;SDS011;11382;48.086;11.632;2023-08-06T08:27:25;1.42;;;0.77;;
22429;SDS011;11382;48.086;11.632;2023-08-06T08:29:55;1.08;;;0.73;;
22429;SDS011;11382;48.086;11.632;2023-08-06T08:32:23;0.85;;;0.73;;
22429;SDS011;11382;48.086;11.632;2023-08-06T08:34:51;1.95;;;0.85;;
22429;SDS011;11382;48.086;11.632;2023-08-06T08:37:19;1.45;;;0.77;;
22429;SDS011;11382;48.086;11.632;2023-08-06T08:39:47;2.30;;;1.23;;
22429;SDS011;11382;48.086;11.632;2023-08-06T08:42:15;1.98;;;0.70;;
22429;SDS011;11382;48.086;11.632;2023-08-06T08:44:43;0.50;;;0.50;;
22429;SDS011;11382;48.086;11.632;2023-08-06T08:47:14;1.60;;;0.70;;
22429;SDS011;11382;48.086;11.632;2023-08-06T08:49:43;0.90;;;0.57;;
22429;SDS011;11382;48.086;11.632;2023-08-06T08:52:11;3.72;;;0.50;;
22429;SDS011;11382;48.086;11.632;2023-08-06T08:54:42;0.70;;;0.40;;
22429;SDS011;11382;48.086;11.632;2023-08-06T08:57:11;0.63;;;0.43;;
22429;SDS011;11382;48.086;11.632;2023-08-06T08:59:39;4.47;;;0.60;;
22429;SDS011;11382;48.086;11.632;2023-08-06T09:02:07;1.75;;;0.40;;
22429;SDS011;11382;48.086;11.632;2023-08-06T09:04:39;3.58;;;0.63;;
22429;SDS011;11382;48.086;11.632;2023-08-06T09:07:08;0.43;;;0.30;;
22429;SDS011;11382;48.086;11.632;2023-08-06T09:09:40;1.27;;;0.50;;
22429;SDS011;11382;48.086;11.632;2023-08-06T09:12:12;0.82;;;0.40;;
22429;SDS011;11382;48.086;11.632;2023-08-06T09:14:42;1.25;;;0.50;;
22429;SDS011;11382;48.086;11.632;2023-08-06T09:17:10;1.05;;;0.57;;
22429;SDS011;11382;48.086;11.632;2023-08-06T09:19:42;0.40;;;0.30;;
22429;SDS011;11382;48.086;11.632;2023-08-06T09:22:13;0.88;;;0.35;;
22429;SDS011;11382;48.086;11.632;2023-08-06T09:24:41;1.45;;;0.30;;
22429;SDS011;11382;48.086;11.632;2023-08-06T09:27:13;0.30;;;0.28;;
22429;SDS011;11382;48.086;11.632;2023-08-06T09:29:41;1.35;;;0.60;;
22429;SDS011;11382;48.086;11.632;2023-08-06T09:32:11;1.00;;;0.30;;
22429;SDS011;11382;48.086;11.632;2023-08-06T09:34:39;0.20;;;0.20;;
22429;SDS011;11382;48.086;11.632;2023-08-06T09:37:10;1.65;;;0.47;;
22429;SDS011;11382;48.086;11.632;2023-08-06T09:39:39;3.03;;;0.43;;
22429;SDS011;11382;48.086;11.632;2023-08-06T09:42:07;1.48;;;0.28;;
22429;SDS011;11382;48.086;11.632;2023-08-06T09:44:35;1.48;;;0.32;;
22429;SDS011;11382;48.086;11.632;2023-08-06T09:47:05;1.35;;;0.40;;
22429;SDS011;11382;48.086;11.632;2023-08-06T09:49:42;0.20;;;0.20;;
22429;SDS011;11382;48.086;11.632;2023-08-06T09:52:13;1.17;;;0.30;;
22429;SDS011;11382;48.086;11.632;2023-08-06T09:54:43;0.75;;;0.40;;
22429;SDS011;11382;48.086;11.632;2023-08-06T09:57:12;1.23;;;0.30;;
22429;SDS011;11382;48.086;11.632;2023-08-06T09:59:41;0.35;;;0.30;;
22429;SDS011;11382;48.086;11.632;2023-08-06T10:02:12;1.20;;;0.47;;
22429;SDS011;11382;48.086;11.632;2023-08-06T10:04:42;1.17;;;0.30;;
22429;SDS011;11382;48.086;11.632;2023-08-06T10:07:21;0.70;;;0.30;;
22429;SDS011;11382;48.086;11.632;2023-08-06T10:09:50;0.65;;;0.13;;
22429;SDS011;11382;48.086;11.632;2023-08-06T10:12:18;1.08;;;0.10;;
22429;SDS011;11382;48.086;11.632;2023-08-06T10:14:47;0.38;;;0.10;;
22429;SDS011;11382;48.086;11.632;2023-08-06T10:17:17;1.65;;;0.30;;
22429;SDS011;11382;48.086;11.632;2023-08-06T10:19:45;0.90;;;0.40;;
22429;SDS011;11382;48.086;11.632;2023-08-06T10:22:14;0.40;;;0.30;;
22429;SDS011;11382;48.086;11.632;2023-08-06T10:24:51;1.75;;;0.32;;
22429;SDS011;11382;48.086;11.632;2023-08-06T10:27:23;0.93;;;0.43;;
22429;SDS011;11382;48.086;11.632;2023-08-06T10:29:56;1.15;;;0.22;;
22429;SDS011;11382;48.086;11.632;2023-08-06T10:32:48;0.47;;;0.40;;
22429;SDS011;11382;48.086;11.632;2023-08-06T10:35:30;0.75;;;0.30;;
22429;SDS011;11382;48.086;11.632;2023-08-06T10:38:05;0.40;;;0.30;;
22429;SDS011;11382;48.086;11.632;2023-08-06T10:40:37;0.60;;;0.20;;
22429;SDS011;11382;48.086;11.632;2023-08-06T10:43:07;0.20;;;0.10;;
22429;SDS011;11382;48.086;11.632;2023-08-06T10:45:36;0.45;;;0.28;;
22429;SDS011;11382;48.086;11.632;2023-08-06T10:48:05;1.45;;;0.20;;
22429;SDS011;11382;48.086;11.632;2023-08-06T10:50:34;0.30;;;0.30;;
22429;SDS011;11382;48.086;11.632;2023-08-06T10:53:03;3.17;;;0.30;;
22429;SDS011;11382;48.086;11.632;2023-08-06T10:55:33;0.30;;;0.30;;
22429;SDS011;11382;48.086;11.632;2023-08-06T10:58:03;0.25;;;0.10;;
22429;SDS011;11382;48.086;11.632;2023-08-06T11:00:31;1.55;;;0.20;;
22429;SDS011;11382;48.086;11.632;2023-08-06T11:02:59;2.05;;;0.35;;
22429;SDS011;11382;48.086;11.632;2023-08-06T11:05:27;0.52;;;0.22;;
22429;SDS011;11382;48.086;11.632;2023-08-06T11:07:55;0.30;;;0.20;;
22429;SDS011;11382;48.086;11.632;2023-08-06T11:10:23;0.60;;;0.30;;
22429;SDS011;11382;48.086;11.632;2023-08-06T11:12:51;0.17;;;0.17;;
22429;SDS011;11382;48.086;11.632;2023-08-06T11:15:21;1.50;;;0.40;;
22429;SDS011;11382;48.086;11.632;2023-08-06T11:17:49;1.48;;;0.22;;
22429;SDS011;11382;48.086;11.632;2023-08-06T11:20:18;0.38;;;0.38;;
22429;SDS011;11382;48.086;11.632;2023-08-06T11:22:48;0.30;;;0.30;;
22429;SDS011;11382;48.086;11.632;2023-08-06T11:25:19;0.35;;;0.10;;
22429;SDS011;11382;48.086;11.632;2023-08-06T11:27:48;0.60;;;0.38;;
22429;SDS011;11382;48.086;11.632;2023-08-06T11:30:16;0.75;;;0.15;;
22429;SDS011;11382;48.086;11.632;2023-08-06T11:32:46;0.10;;;0.10;;
22429;SDS011;11382;48.086;11.632;2023-08-06T11:35:15;0.47;;;0.35;;
22429;SDS011;11382;48.086;11.632;2023-08-06T11:37:43;1.55;;;0.35;;
22429;SDS011;11382;48.086;11.632;2023-08-06T11:40:13;1.20;;;0.20;;
22429;SDS011;11382;48.086;11.632;2023-08-06T11:42:42;0.47;;;0.25;;
22429;SDS011;11382;48.086;11.632;2023-08-06T11:45:10;0.00;;;0.00;;
22429;SDS011;11382;48.086;11.632;2023-08-06T11:47:38;0.50;;;0.13;;
22429;SDS011;11382;48.086;11.632;2023-08-06T11:50:09;0.20;;;0.15;;
22429;SDS011;11382;48.086;11.632;2023-08-06T11:52:52;0.38;;;0.10;;
22429;SDS011;11382;48.086;11.632;2023-08-06T11:55:23;0.10;;;0.10;;
22429;SDS011;11382;48.086;11.632;2023-08-06T11:57:52;1.02;;;0.10;;
22429;SDS011;11382;48.086;11.632;2023-08-06T12:00:20;0.30;;;0.10;;
22429;SDS011;11382;48.086;11.632;2023-08-06T12:02:51;0.60;;;0.10;;
22429;SDS011;11382;48.086;11.632;2023-08-06T12:05:23;0.52;;;0.13;;
22429;SDS011;11382;48.086;11.632;2023-08-06T12:07:57;1.25;;;0.25;;
22429;SDS011;11382;48.086;11.632;2023-08-06T12:10:27;0.25;;;0.10;;
22429;SDS011;11382;48.086;11.632;2023-08-06T12:12:56;1.20;;;0.10;;
22429;SDS011;11382;48.086;11.632;2023-08-06T12:15:24;0.55;;;0.20;;
22429;SDS011;11382;48.086;11.632;2023-08-06T12:17:52;0.10;;;0.10;;
22429;SDS011;11382;48.086;11.632;2023-08-06T12:20:20;0.52;;;0.10;;
22429;SDS011;11382;48.086;11.632;2023-08-06T12:22:50;0.28;;;0.10;;
22429;SDS011;11382;48.086;11.632;2023-08-06T12:25:18;0.40;;;0.20;;
22429;SDS011;11382;48.086;11.632;2023-08-06T12:27:46;0.10;;;0.10;;
22429;SDS011;11382;48.086;11.632;2023-08-06T12:30:14;0.38;;;0.10;;
22429;SDS011;11382;48.086;11.632;2023-08-06T12:32:42;0.10;;;0.10;;
22429;SDS011;11382;48.086;11.632;2023-08-06T12:35:10;0.30;;;0.20;;
22429;SDS011;11382;48.086;11.632;2023-08-06T12:37:41;0.10;;;0.10;;
22429;SDS011;11382;48.086;11.632;2023-08-06T12:40:10;0.10;;;0.10;;
22429;SDS011;11382;48.086;11.632;2023-08-06T12:42:54;0.10;;;0.10;;
22429;SDS011;11382;48.086;11.632;2023-08-06T12:45:22;0.20;;;0.20;;
22429;SDS011;11382;48.086;11.632;2023-08-06T12:47:50;0.10;;;0.10;;
22429;SDS011;11382;48.086;11.632;2023-08-06T12:50:18;0.35;;;0.10;;
22429;SDS011;11382;48.086;11.632;2023-08-06T12:52:47;0.10;;;0.10;;
22429;SDS011;11382;48.086;11.632;2023-08-06T12:55:15;0.10;;;0.10;;
22429;SDS011;11382;48.086;11.632;2023-08-06T12:57:43;0.35;;;0.30;;
22429;SDS011;11382;48.086;11.632;2023-08-06T13:00:23;0.10;;;0.10;;
22429;SDS011;11382;48.086;11.632;2023-08-06T13:02:51;0.20;;;0.20;;
22429;SDS011;11382;48.086;11.632;2023-08-06T13:05:19;0.30;;;0.20;;
22429;SDS011;11382;48.086;11.632;2023-08-06T13:07:48;0.30;;;0.30;;
22429;SDS011;11382;48.086;11.632;2023-08-06T13:10:16;0.88;;;0.45;;
22429;SDS011;11382;48.086;11.632;2023-08-06T13:12:45;0.80;;;0.20;;
22429;SDS011;11382;48.086;11.632;2023-08-06T13:15:14;0.47;;;0.47;;
22429;SDS011;11382;48.086;11.632;2023-08-06T13:17:43;0.80;;;0.20;;
22429;SDS011;11382;48.086;11.632;2023-08-06T13:20:12;0.45;;;0.20;;
22429;SDS011;11382;48.086;11.632;2023-08-06T13:22:42;0.35;;;0.20;;
22429;SDS011;11382;48.086;11.632;2023-08-06T13:25:13;0.55;;;0.30;;
22429;SDS011;11382;48.086;11.632;2023-08-06T13:27:43;0.13;;;0.13;;
22429;SDS011;11382;48.086;11.632;2023-08-06T13:30:12;1.13;;;0.40;;
22429;SDS011;11382;48.086;11.632;2023-08-06T13:32:40;2.50;;;0.30;;
22429;SDS011;11382;48.086;11.632;2023-08-06T13:35:08;0.65;;;0.30;;
22429;SDS011;11382;48.086;11.632;2023-08-06T13:37:36;0.73;;;0.30;;
22429;SDS011;11382;48.086;11.632;2023-08-06T13:40:04;0.22;;;0.20;;
22429;SDS011;11382;48.086;11.632;2023-08-06T13:42:36;0.20;;;0.20;;
22429;SDS011;11382;48.086;11.632;2023-08-06T13:45:04;0.38;;;0.20;;
22429;SDS011;11382;48.086;11.632;2023-08-06T13:47:33;0.17;;;0.10;;
22429;SDS011;11382;48.086;11.632;2023-08-06T13:50:02;0.60;;;0.13;;
22429;SDS011;11382;48.086;11.632;2023-08-06T13:52:30;0.30;;;0.30;;
22429;SDS011;11382;48.086;11.632;2023-08-06T13:54:58;0.38;;;0.10;;
22429;SDS011;11382;48.086;11.632;2023-08-06T13:57:26;0.40;;;0.30;;
22429;SDS011;11382;48.086;11.632;2023-08-06T13:59:56;0.95;;;0.20;;
22429;SDS011;11382;48.086;11.632;2023-08-06T14:02:24;0.85;;;0.30;;
22429;SDS011;11382;48.086;11.632;2023-08-06T14:04:52;0.43;;;0.20;;
22429;SDS011;11382;48.086;11.632;2023-08-06T14:07:20;0.55;;;0.20;;
22429;SDS011;11382;48.086;11.632;2023-08-06T14:09:48;0.15;;;0.03;;
22429;SDS011;11382;48.086;11.632;2023-08-06T14:12:16;0.55;;;0.20;;
22429;SDS011;11382;48.086;11.632;2023-08-06T14:14:44;0.30;;;0.20;;
22429;SDS011;11382;48.086;11.632;2023-08-06T14:17:13;0.20;;;0.20;;
22429;SDS011;11382;48.086;11.632;2023-08-06T14:19:42;1.63;;;0.22;;
22429;SDS011;11382;48.086;11.632;2023-08-06T14:22:10;0.40;;;0.20;;
22429;SDS011;11382;48.086;11.632;2023-08-06T14:24:38;1.30;;;0.30;;
22429;SDS011;11382;48.086;11.632;2023-08-06T14:27:06;0.22;;;0.20;;
22429;SDS011;11382;48.086;11.632;2023-08-06T14:29:34;0.88;;;0.32;;
22429;SDS011;11382;48.086;11.632;2023-08-06T14:32:02;0.63;;;0.40;;
22429;SDS011;11382;48.086;11.632;2023-08-06T14:34:31;0.65;;;0.30;;
22429;SDS011;11382;48.086;11.632;2023-08-06T14:36:59;1.38;;;0.30;;
22429;SDS011;11382;48.086;11.632;2023-08-06T14:39:27;1.13;;;0.35;;
22429;SDS011;11382;48.086;11.632;2023-08-06T14:41:55;0.43;;;0.40;;
22429;SDS011;11382;48.086;11.632;2023-08-06T14:44:23;0.43;;;0.30;;